createdAt,value
2023-05-05T00:01:49.734Z,83.55
2023-05-05T00:04:16.126Z,83.38
2023-05-05T00:06:42.734Z,83.30
2023-05-05T00:09:09.495Z,83.28
2023-05-05T00:11:35.945Z,83.35
2023-05-05T00:14:02.441Z,83.29
2023-05-05T00:16:28.919Z,83.33
2023-05-05T00:18:55.367Z,83.20
2023-05-05T00:21:21.889Z,83.20
2023-05-05T00:23:48.276Z,83.27
2023-05-05T00:26:14.814Z,83.34
2023-05-05T00:28:41.309Z,83.45
2023-05-05T00:31:09.538Z,83.37
2023-05-05T00:33:34.337Z,83.33
2023-05-05T00:36:00.858Z,83.14
2023-05-05T00:38:27.319Z,83.30
2023-05-05T00:40:53.844Z,83.24
2023-05-05T00:43:20.346Z,83.21
2023-05-05T00:45:46.883Z,83.32
2023-05-05T00:48:13.394Z,83.47
2023-05-05T00:50:39.804Z,83.61
2023-05-05T00:53:06.339Z,83.85
2023-05-05T00:55:32.895Z,84.01
2023-05-05T00:57:59.421Z,83.97
2023-05-05T01:00:26.040Z,83.98
2023-05-05T01:02:52.819Z,83.97
2023-05-05T01:05:18.926Z,84.06
2023-05-05T01:07:45.378Z,84.14
2023-05-05T01:10:19.898Z,84.26
2023-05-05T01:12:40.617Z,84.18
2023-05-05T01:15:04.924Z,84.08
2023-05-05T01:17:31.345Z,84.20
2023-05-05T01:19:57.860Z,84.26
2023-05-05T01:22:24.264Z,84.36
2023-05-05T01:24:50.717Z,84.44
2023-05-05T01:27:17.119Z,84.34
2023-05-05T01:29:43.572Z,84.49
2023-05-05T01:32:10.063Z,84.57
2023-05-05T01:34:36.489Z,84.58
2023-05-05T01:37:03.013Z,84.87
2023-05-05T01:39:29.385Z,84.91
2023-05-05T01:41:55.893Z,85.03
2023-05-05T01:44:22.412Z,85.13
2023-05-05T01:46:48.919Z,85.41
2023-05-05T01:49:15.298Z,85.38
2023-05-05T01:51:41.688Z,85.63
2023-05-05T01:54:08.217Z,85.69
2023-05-05T01:56:35.171Z,85.85
2023-05-05T01:59:01.608Z,85.96
2023-05-05T02:01:27.999Z,85.99
2023-05-05T02:03:54.402Z,86.16
2023-05-05T02:06:20.920Z,86.23
2023-05-05T02:08:47.301Z,86.31
2023-05-05T02:11:13.780Z,86.33
2023-05-05T02:13:40.274Z,86.37
2023-05-05T02:16:06.705Z,86.33
2023-05-05T02:18:33.117Z,86.33
2023-05-05T02:20:59.584Z,86.29
2023-05-05T02:23:26.012Z,86.35
2023-05-05T02:25:52.493Z,86.20
2023-05-05T02:28:19.023Z,86.08
2023-05-05T02:30:45.618Z,86.04
2023-05-05T02:33:12.092Z,85.85
2023-05-05T02:35:40.144Z,85.74
2023-05-05T02:38:05.070Z,85.68
2023-05-05T02:40:31.694Z,85.68
2023-05-05T02:42:58.018Z,85.61
2023-05-05T02:45:24.504Z,85.69
2023-05-05T02:47:51.071Z,85.57
2023-05-05T02:50:17.490Z,85.43
2023-05-05T02:52:44.017Z,85.37
2023-05-05T02:55:10.617Z,85.27
2023-05-05T02:57:37.208Z,85.20
2023-05-05T03:00:03.561Z,85.11
2023-05-05T03:02:30.142Z,85.03
2023-05-05T03:04:56.708Z,84.96
2023-05-05T03:07:23.183Z,84.84
2023-05-05T03:09:49.672Z,84.72
2023-05-05T03:12:16.194Z,84.65
2023-05-05T03:14:42.714Z,84.58
2023-05-05T03:17:09.168Z,84.49
2023-05-05T03:19:35.656Z,84.35
2023-05-05T03:22:02.122Z,84.26
2023-05-05T03:24:28.586Z,84.19
2023-05-05T03:26:54.985Z,84.00
2023-05-05T03:29:21.402Z,83.82
2023-05-05T03:31:48.173Z,83.71
2023-05-05T03:34:14.548Z,83.54
2023-05-05T03:36:41.128Z,83.37
2023-05-05T03:39:07.601Z,83.17
2023-05-05T03:41:33.976Z,83.09
2023-05-05T03:44:00.480Z,82.99
2023-05-05T03:46:26.875Z,82.88
2023-05-05T03:48:53.314Z,82.70
2023-05-05T03:51:19.750Z,82.62
2023-05-05T03:53:46.238Z,82.51
2023-05-05T03:56:12.624Z,82.47
2023-05-05T03:58:39.025Z,82.46
2023-05-05T04:01:05.482Z,82.47
2023-05-05T04:03:31.961Z,82.45
2023-05-05T04:05:58.299Z,82.42
2023-05-05T04:08:24.836Z,82.51
2023-05-05T04:10:51.251Z,82.65
2023-05-05T04:13:17.821Z,82.69
2023-05-05T04:15:44.334Z,82.73
2023-05-05T04:18:10.746Z,82.80
2023-05-05T04:20:37.218Z,82.87
2023-05-05T04:23:03.752Z,82.97
2023-05-05T04:25:30.305Z,83.02
2023-05-05T04:27:56.789Z,83.15
2023-05-05T04:30:23.224Z,83.30
2023-05-05T04:32:49.750Z,83.32
2023-05-05T04:35:16.145Z,93.26
2023-05-05T04:37:42.610Z,100.00
2023-05-05T04:40:09.232Z,100.00
2023-05-05T04:42:35.418Z,100.00
2023-05-05T04:45:02.036Z,100.00
2023-05-05T04:47:28.428Z,100.00
2023-05-05T04:49:54.990Z,100.00
2023-05-05T04:52:21.399Z,97.63
2023-05-05T04:54:47.843Z,94.92
2023-05-05T04:57:14.342Z,92.77
2023-05-05T04:59:40.673Z,91.05
2023-05-05T05:02:07.251Z,89.61
2023-05-05T05:04:33.651Z,88.46
2023-05-05T05:07:00.036Z,87.18
2023-05-05T05:09:26.493Z,86.15
2023-05-05T05:11:52.919Z,85.53
2023-05-05T05:14:19.381Z,85.02
2023-05-05T05:16:45.923Z,84.61
2023-05-05T05:19:13.448Z,84.30
2023-05-05T05:21:39.858Z,84.00
2023-05-05T05:24:06.349Z,83.61
2023-05-05T05:26:32.780Z,83.28
2023-05-05T05:28:59.327Z,82.79
2023-05-05T05:31:25.740Z,82.34
2023-05-05T05:33:52.107Z,82.07
2023-05-05T05:36:18.547Z,81.92
2023-05-05T05:38:45.184Z,81.72
2023-05-05T05:41:11.628Z,81.39
2023-05-05T05:43:38.406Z,80.91
2023-05-05T05:46:07.514Z,80.49
2023-05-05T05:48:31.267Z,79.73
2023-05-05T05:50:57.755Z,79.16
2023-05-05T05:53:24.228Z,78.68
2023-05-05T05:55:50.625Z,78.35
2023-05-05T05:58:17.110Z,77.97
2023-05-05T06:00:43.616Z,77.53
2023-05-05T06:03:10.301Z,77.18
2023-05-05T06:05:36.536Z,77.08
2023-05-05T06:08:03.102Z,77.08
2023-05-05T06:10:29.928Z,76.96
2023-05-05T06:12:55.957Z,76.96
2023-05-05T06:15:22.286Z,76.72
2023-05-05T06:17:48.773Z,76.40
2023-05-05T06:20:15.289Z,75.88
2023-05-05T06:22:41.699Z,75.84
2023-05-05T06:25:08.171Z,75.38
2023-05-05T06:27:34.526Z,75.28
2023-05-05T06:30:00.916Z,75.26
2023-05-05T06:32:27.413Z,74.84
2023-05-05T06:34:53.837Z,74.77
2023-05-05T06:37:20.218Z,74.51
2023-05-05T06:39:46.703Z,74.53
2023-05-05T06:42:13.097Z,74.33
2023-05-05T06:44:39.585Z,74.21
2023-05-05T06:47:06.066Z,73.97
2023-05-05T06:49:32.478Z,73.86
2023-05-05T06:51:58.873Z,73.31
2023-05-05T06:54:25.272Z,73.16
2023-05-05T06:56:51.702Z,72.32
2023-05-05T06:59:18.097Z,72.13
2023-05-05T07:01:44.598Z,71.39
2023-05-05T07:04:11.159Z,71.08
2023-05-05T07:06:37.428Z,71.06
2023-05-05T07:09:03.859Z,70.26
2023-05-05T07:11:30.665Z,69.87
2023-05-05T07:13:57.124Z,69.79
2023-05-05T07:16:23.792Z,69.64
2023-05-05T07:18:50.162Z,69.06
2023-05-05T07:21:16.756Z,68.72
2023-05-05T07:23:43.154Z,68.72
2023-05-05T07:26:09.535Z,68.67
2023-05-05T07:28:35.993Z,68.54
2023-05-05T07:31:02.416Z,67.98
2023-05-05T07:33:28.806Z,67.74
2023-05-05T07:35:55.241Z,67.08
2023-05-05T07:38:21.685Z,66.73
2023-05-05T07:40:48.066Z,65.85
2023-05-05T07:43:14.472Z,65.22
2023-05-05T07:45:40.884Z,64.33
2023-05-05T07:48:07.368Z,63.52
2023-05-05T07:50:33.747Z,62.58
2023-05-05T07:53:10.800Z,61.53
2023-05-05T07:55:26.630Z,60.74
2023-05-05T07:57:53.036Z,60.10
2023-05-05T08:00:19.679Z,59.22
2023-05-05T08:02:46.028Z,58.98
2023-05-05T08:05:12.444Z,58.98
2023-05-05T08:07:39.435Z,58.80
2023-05-05T08:10:05.792Z,58.84
2023-05-05T08:12:32.244Z,58.56
2023-05-05T08:14:58.833Z,57.74
2023-05-05T08:17:25.241Z,57.32
2023-05-05T08:19:51.660Z,56.93
2023-05-05T08:22:18.073Z,56.55
2023-05-05T08:24:44.469Z,55.30
2023-05-05T08:27:10.852Z,54.69
2023-05-05T08:29:37.287Z,54.13
2023-05-05T08:32:03.728Z,55.22
2023-05-05T08:34:30.149Z,54.81
2023-05-05T08:36:59.145Z,54.68
2023-05-05T08:39:25.530Z,53.42
2023-05-05T08:41:52.126Z,54.18
2023-05-05T08:44:18.545Z,53.71
2023-05-05T08:46:44.998Z,53.62
2023-05-05T08:49:11.500Z,54.05
2023-05-05T08:51:37.932Z,53.65
2023-05-05T08:54:04.282Z,53.47
2023-05-05T08:56:30.684Z,52.29
2023-05-05T08:58:57.148Z,52.23
2023-05-05T09:01:23.589Z,52.36
2023-05-05T09:03:49.949Z,52.28
2023-05-05T09:06:16.351Z,52.58
2023-05-05T09:08:42.793Z,52.20
2023-05-05T09:11:09.273Z,52.29
2023-05-05T09:13:35.620Z,52.33
2023-05-05T09:16:02.038Z,52.16
2023-05-05T09:18:28.408Z,52.67
2023-05-05T09:20:55.143Z,52.38
2023-05-05T09:23:21.300Z,52.66
2023-05-05T09:25:47.904Z,52.81
2023-05-05T09:28:14.310Z,51.87
2023-05-05T09:30:40.893Z,51.40
2023-05-05T09:33:07.284Z,51.54
2023-05-05T09:35:33.627Z,51.00
2023-05-05T09:38:00.056Z,50.46
2023-05-05T09:40:26.459Z,50.18
2023-05-05T09:42:52.830Z,49.72
2023-05-05T09:45:19.289Z,49.74
2023-05-05T09:47:45.707Z,49.45
2023-05-05T09:50:12.061Z,49.51
2023-05-05T09:52:38.430Z,49.46
2023-05-05T09:55:04.885Z,49.60
2023-05-05T09:57:31.257Z,49.52
2023-05-05T09:59:57.699Z,49.52
2023-05-05T10:02:24.256Z,49.59
2023-05-05T10:04:50.793Z,49.50
2023-05-05T10:07:17.008Z,49.09
2023-05-05T10:09:43.478Z,49.26
2023-05-05T10:12:09.885Z,49.17
2023-05-05T10:14:36.278Z,49.00
2023-05-05T10:17:02.724Z,49.02
2023-05-05T10:19:29.133Z,49.08
2023-05-05T10:21:55.499Z,49.11
2023-05-05T10:24:21.957Z,49.06
2023-05-05T10:26:48.321Z,49.25
2023-05-05T10:29:14.701Z,49.22
2023-05-05T10:31:41.171Z,49.05
2023-05-05T10:34:07.819Z,49.20
2023-05-05T10:36:34.093Z,48.95
2023-05-05T10:39:00.603Z,49.14
2023-05-05T10:41:26.919Z,48.95
2023-05-05T10:43:53.351Z,48.61
2023-05-05T10:46:19.818Z,48.60
2023-05-05T10:48:46.179Z,48.56
2023-05-05T10:51:13.190Z,48.26
2023-05-05T10:53:38.934Z,48.48
2023-05-05T10:56:05.347Z,48.32
2023-05-05T10:58:31.756Z,48.46
2023-05-05T11:00:58.144Z,48.74
2023-05-05T11:03:24.616Z,48.64
2023-05-05T11:05:51.149Z,48.49
2023-05-05T11:08:17.801Z,48.54
2023-05-05T11:10:44.252Z,48.66
2023-05-05T11:13:10.679Z,48.66
2023-05-05T11:15:37.057Z,48.30
2023-05-05T11:18:06.685Z,48.11
2023-05-05T11:20:29.915Z,47.85
2023-05-05T11:22:56.333Z,47.74
2023-05-05T11:25:22.720Z,47.54
2023-05-05T11:27:49.094Z,47.37
2023-05-05T11:30:15.529Z,47.45
2023-05-05T11:32:41.932Z,47.35
2023-05-05T11:35:08.328Z,47.41
2023-05-05T11:37:34.680Z,47.30
2023-05-05T11:40:01.080Z,47.31
2023-05-05T11:42:27.488Z,47.29
2023-05-05T11:44:53.896Z,47.14
2023-05-05T11:47:20.304Z,46.74
2023-05-05T11:49:46.728Z,46.68
2023-05-05T11:52:13.144Z,46.36
2023-05-05T11:54:39.613Z,46.52
2023-05-05T11:57:06.210Z,46.49
2023-05-05T11:59:32.660Z,46.71
2023-05-05T12:01:59.274Z,47.15
2023-05-05T12:04:25.706Z,47.14
2023-05-05T12:06:52.313Z,47.44
2023-05-05T12:09:18.662Z,47.39
2023-05-05T12:11:45.081Z,47.21
2023-05-05T12:14:11.532Z,47.31
2023-05-05T12:16:38.048Z,47.06
2023-05-05T12:19:04.455Z,47.18
2023-05-05T12:21:30.853Z,46.83
2023-05-05T12:23:57.366Z,46.75
2023-05-05T12:26:23.739Z,46.41
2023-05-05T12:28:50.141Z,46.78
2023-05-05T12:31:16.665Z,46.57
2023-05-05T12:33:43.053Z,46.48
2023-05-05T12:36:09.483Z,46.73
2023-05-05T12:38:35.864Z,46.48
2023-05-05T12:41:02.335Z,46.61
2023-05-05T12:43:28.804Z,46.42
2023-05-05T12:45:55.297Z,46.30
2023-05-05T12:48:21.644Z,46.25
2023-05-05T12:50:48.058Z,45.87
2023-05-05T12:53:14.486Z,45.65
2023-05-05T12:55:40.841Z,45.91
2023-05-05T12:58:07.313Z,45.96
2023-05-05T13:00:33.693Z,45.86
2023-05-05T13:03:00.170Z,45.88
2023-05-05T13:05:26.604Z,45.75
2023-05-05T13:07:53.091Z,45.39
2023-05-05T13:10:19.486Z,45.68
2023-05-05T13:12:45.917Z,45.48
2023-05-05T13:15:12.357Z,45.62
2023-05-05T13:17:38.987Z,45.82
2023-05-05T13:20:05.373Z,45.86
2023-05-05T13:22:31.806Z,45.84
2023-05-05T13:24:58.300Z,46.11
2023-05-05T13:27:24.693Z,46.62
2023-05-05T13:29:51.123Z,46.40
2023-05-05T13:32:17.645Z,46.68
2023-05-05T13:34:44.079Z,46.13
2023-05-05T13:37:10.519Z,46.01
2023-05-05T13:39:37.975Z,46.21
2023-05-05T13:42:04.394Z,46.64
2023-05-05T13:44:30.749Z,46.82
2023-05-05T13:46:57.232Z,50.42
2023-05-05T13:49:23.565Z,50.14
2023-05-05T13:51:50.000Z,50.94
2023-05-05T13:54:16.385Z,50.57
2023-05-05T13:56:42.811Z,50.15
2023-05-05T13:59:09.614Z,50.96
2023-05-05T14:01:36.083Z,51.25
2023-05-05T14:04:05.216Z,51.13
2023-05-05T14:06:28.954Z,51.28
2023-05-05T14:08:55.380Z,50.92
2023-05-05T14:11:21.821Z,50.26
2023-05-05T14:13:48.264Z,50.59
2023-05-05T14:16:14.862Z,51.73
2023-05-05T14:18:41.258Z,51.77
2023-05-05T14:21:07.708Z,51.62
2023-05-05T14:23:34.093Z,51.72
2023-05-05T14:26:00.462Z,52.05
2023-05-05T14:28:27.247Z,51.61
2023-05-05T14:30:53.676Z,51.67
2023-05-05T14:33:20.079Z,51.75
2023-05-05T14:35:46.516Z,51.82
2023-05-05T14:38:13.162Z,51.93
2023-05-05T14:40:39.554Z,51.80
2023-05-05T14:43:05.987Z,52.19
2023-05-05T14:45:32.382Z,52.01
2023-05-05T14:47:59.203Z,52.29
2023-05-05T14:50:25.759Z,52.15
2023-05-05T14:52:52.095Z,52.55
2023-05-05T14:55:18.508Z,52.49
2023-05-05T14:57:45.679Z,52.55
2023-05-05T15:00:11.979Z,52.57
2023-05-05T15:02:38.500Z,52.49
2023-05-05T15:05:04.862Z,52.53
2023-05-05T15:07:31.287Z,52.93
2023-05-05T15:10:00.358Z,53.29
2023-05-05T15:12:24.108Z,53.33
2023-05-05T15:14:50.558Z,53.47
2023-05-05T15:17:17.129Z,53.14
2023-05-05T15:19:43.585Z,53.14
2023-05-05T15:22:10.466Z,53.19
2023-05-05T15:24:36.845Z,53.51
2023-05-05T15:27:03.375Z,53.65
2023-05-05T15:29:29.808Z,53.72
2023-05-05T15:31:56.288Z,53.38
2023-05-05T15:34:22.669Z,54.92
2023-05-05T15:36:49.637Z,54.63
2023-05-05T15:39:16.058Z,55.01
2023-05-05T15:41:42.418Z,54.99
2023-05-05T15:44:08.808Z,58.57
2023-05-05T15:46:35.636Z,55.79
2023-05-05T15:49:02.037Z,55.53
2023-05-05T15:51:28.441Z,55.04
2023-05-05T15:53:54.848Z,54.99
2023-05-05T15:56:21.252Z,54.48
2023-05-05T15:58:47.677Z,54.54
2023-05-05T16:01:14.155Z,54.40
2023-05-05T16:03:40.683Z,54.79
2023-05-05T16:06:07.029Z,54.85
2023-05-05T16:08:33.424Z,57.31
2023-05-05T16:10:59.820Z,55.89
2023-05-05T16:13:26.389Z,55.20
2023-05-05T16:15:52.624Z,54.99
2023-05-05T16:18:19.594Z,55.41
2023-05-05T16:20:46.030Z,55.26
2023-05-05T16:23:12.400Z,55.18
2023-05-05T16:25:38.824Z,55.00
2023-05-05T16:28:05.261Z,54.79
2023-05-05T16:30:31.644Z,54.66
2023-05-05T16:32:58.275Z,54.64
2023-05-05T16:35:24.667Z,54.73
2023-05-05T16:37:51.045Z,54.58
2023-05-05T16:40:17.859Z,54.57
2023-05-05T16:42:44.707Z,54.79
2023-05-05T16:45:10.792Z,54.93
2023-05-05T16:47:37.123Z,54.90
2023-05-05T16:50:03.762Z,55.30
2023-05-05T16:52:30.241Z,55.38
2023-05-05T16:54:56.615Z,55.60
2023-05-05T16:57:23.051Z,55.68
2023-05-05T16:59:49.423Z,55.93
2023-05-05T17:02:15.785Z,56.19
2023-05-05T17:04:42.221Z,56.10
2023-05-05T17:07:08.657Z,56.11
2023-05-05T17:09:35.165Z,56.23
2023-05-05T17:12:04.099Z,56.37
2023-05-05T17:14:31.532Z,56.29
2023-05-05T17:16:58.207Z,56.49
2023-05-05T17:19:24.805Z,56.68
2023-05-05T17:21:51.275Z,56.67
2023-05-05T17:24:18.455Z,56.81
2023-05-05T17:26:45.249Z,57.06
2023-05-05T17:29:13.283Z,57.10
2023-05-05T17:31:41.067Z,57.21
2023-05-05T17:34:07.699Z,57.52
2023-05-05T17:36:36.516Z,57.55
2023-05-05T17:39:02.870Z,57.51
2023-05-05T17:41:29.298Z,57.77
2023-05-05T17:43:55.704Z,57.98
2023-05-05T17:46:22.258Z,58.15
2023-05-05T17:48:48.586Z,58.49
2023-05-05T17:51:14.949Z,59.90
2023-05-05T17:53:41.472Z,61.74
2023-05-05T17:56:09.074Z,61.47
2023-05-05T17:58:34.715Z,60.98
2023-05-05T18:01:01.177Z,60.66
2023-05-05T18:03:27.756Z,60.41
2023-05-05T18:05:54.076Z,60.47
2023-05-05T18:08:20.612Z,61.70
2023-05-05T18:10:47.049Z,61.69
2023-05-05T18:13:13.583Z,61.35
2023-05-05T18:15:39.925Z,61.49
2023-05-05T18:18:06.330Z,61.74
2023-05-05T18:20:32.744Z,61.61
2023-05-05T18:22:59.177Z,62.01
2023-05-05T18:25:25.609Z,62.08
2023-05-05T18:27:52.010Z,62.38
2023-05-05T18:30:18.582Z,62.33
2023-05-05T18:32:45.025Z,62.68
2023-05-05T18:35:11.862Z,62.71
2023-05-05T18:37:37.950Z,62.64
2023-05-05T18:40:04.430Z,62.95
2023-05-05T18:42:30.885Z,63.08
2023-05-05T18:44:57.368Z,63.11
2023-05-05T18:47:23.906Z,63.26
2023-05-05T18:49:50.284Z,63.62
2023-05-05T18:52:16.781Z,63.50
2023-05-05T18:54:43.276Z,63.75
2023-05-05T18:57:09.675Z,64.02
2023-05-05T18:59:38.670Z,64.03
2023-05-05T19:02:05.105Z,64.28
2023-05-05T19:04:32.005Z,64.35
2023-05-05T19:06:58.170Z,64.37
2023-05-05T19:09:24.794Z,64.62
2023-05-05T19:11:51.136Z,64.52
2023-05-05T19:14:17.585Z,64.79
2023-05-05T19:16:44.095Z,64.73
2023-05-05T19:19:10.498Z,65.00
2023-05-05T19:21:36.901Z,65.24
2023-05-05T19:24:03.399Z,65.30
2023-05-05T19:26:29.816Z,65.39
2023-05-05T19:28:56.353Z,65.46
2023-05-05T19:31:22.860Z,65.59
2023-05-05T19:33:49.260Z,65.59
2023-05-05T19:36:15.607Z,65.57
2023-05-05T19:38:42.175Z,65.98
2023-05-05T19:41:08.627Z,65.82
2023-05-05T19:43:35.148Z,66.11
2023-05-05T19:46:01.750Z,66.23
2023-05-05T19:48:28.617Z,66.39
2023-05-05T19:50:55.100Z,66.46
2023-05-05T19:53:21.470Z,66.40
2023-05-05T19:55:47.948Z,67.07
2023-05-05T19:58:14.366Z,67.51
2023-05-05T20:00:40.918Z,68.43
2023-05-05T20:03:07.377Z,68.47
2023-05-05T20:05:33.714Z,68.04
2023-05-05T20:08:00.200Z,67.62
2023-05-05T20:10:26.521Z,67.57
2023-05-05T20:12:52.996Z,67.76
2023-05-05T20:15:19.356Z,67.68
2023-05-05T20:17:45.849Z,67.87
2023-05-05T20:20:12.342Z,67.76
2023-05-05T20:22:40.116Z,74.89
2023-05-05T20:25:05.045Z,73.24
2023-05-05T20:27:32.502Z,71.14
2023-05-05T20:29:57.956Z,69.96
2023-05-05T20:32:24.440Z,69.54
2023-05-05T20:34:50.736Z,69.12
2023-05-05T20:37:17.221Z,68.73
2023-05-05T20:39:43.540Z,68.86
2023-05-05T20:42:09.942Z,68.67
2023-05-05T20:44:38.446Z,68.70
2023-05-05T20:47:02.862Z,68.75
2023-05-05T20:49:29.160Z,68.94
2023-05-05T20:51:55.621Z,69.11
2023-05-05T20:54:22.018Z,69.27
2023-05-05T20:56:48.502Z,69.26
2023-05-05T20:59:14.952Z,69.09
2023-05-05T21:01:41.385Z,69.10
2023-05-05T21:04:07.943Z,69.08
2023-05-05T21:06:34.361Z,69.19
2023-05-05T21:09:00.852Z,69.25
2023-05-05T21:11:27.226Z,69.37
2023-05-05T21:13:53.640Z,69.64
2023-05-05T21:16:20.462Z,69.72
2023-05-05T21:18:46.792Z,69.88
2023-05-05T21:21:13.266Z,70.03
2023-05-05T21:23:39.643Z,70.18
2023-05-05T21:26:06.460Z,70.35
2023-05-05T21:28:33.973Z,70.32
2023-05-05T21:31:20.555Z,70.64
2023-05-05T21:33:27.063Z,70.70
2023-05-05T21:35:53.454Z,70.96
2023-05-05T21:38:19.885Z,70.75
2023-05-05T21:40:46.290Z,70.95
2023-05-05T21:43:12.734Z,70.95
2023-05-05T21:45:39.206Z,71.00
2023-05-05T21:48:05.779Z,70.88
2023-05-05T21:50:32.152Z,71.05
2023-05-05T21:52:58.813Z,71.15
2023-05-05T21:55:25.302Z,71.32
2023-05-05T21:57:51.816Z,71.18
2023-05-05T22:00:18.271Z,71.15
2023-05-05T22:02:44.727Z,71.37
2023-05-05T22:05:11.061Z,71.44
2023-05-05T22:07:37.521Z,71.61
2023-05-05T22:10:04.053Z,71.78
2023-05-05T22:12:30.565Z,71.71
2023-05-05T22:14:56.979Z,71.76
2023-05-05T22:17:23.555Z,71.77
2023-05-05T22:19:50.043Z,71.93
2023-05-05T22:22:16.670Z,72.18
2023-05-05T22:24:43.218Z,72.30
2023-05-05T22:27:09.660Z,72.37
2023-05-05T22:29:36.090Z,72.56
2023-05-05T22:32:02.606Z,72.56
2023-05-05T22:34:29.038Z,72.79
2023-05-05T22:36:55.496Z,72.94
2023-05-05T22:39:21.837Z,73.03
2023-05-05T22:41:48.328Z,73.22
2023-05-05T22:44:14.870Z,73.25
2023-05-05T22:46:41.391Z,73.35
2023-05-05T22:49:07.896Z,73.57
2023-05-05T22:51:34.378Z,73.57
2023-05-05T22:54:00.896Z,73.67
2023-05-05T22:56:27.363Z,73.73
2023-05-05T22:58:53.809Z,73.96
2023-05-05T23:01:20.294Z,74.09
2023-05-05T23:03:46.916Z,74.08
2023-05-05T23:06:13.456Z,74.42
2023-05-05T23:08:39.785Z,74.53
2023-05-05T23:11:06.288Z,74.64
2023-05-05T23:13:32.759Z,74.85
2023-05-05T23:15:59.128Z,74.80
2023-05-05T23:18:25.606Z,74.95
2023-05-05T23:20:52.057Z,74.96
2023-05-05T23:23:18.472Z,74.94
2023-05-05T23:25:44.909Z,75.18
2023-05-05T23:28:11.585Z,75.04
2023-05-05T23:30:38.154Z,75.31
2023-05-05T23:33:04.536Z,75.46
2023-05-05T23:35:30.893Z,75.33
2023-05-05T23:37:57.333Z,75.63
2023-05-05T23:40:23.836Z,75.67
2023-05-05T23:42:50.286Z,75.63
2023-05-05T23:45:18.674Z,75.73
2023-05-05T23:47:43.082Z,75.84
2023-05-05T23:50:09.457Z,75.97
2023-05-05T23:52:35.948Z,75.85
2023-05-05T23:55:02.338Z,75.94
2023-05-05T23:57:28.748Z,75.82
2023-05-05T23:59:55.196Z,75.92
